createdAt,value
2019-05-12T00:04:10.512Z,77.70
2019-05-12T00:10:55.368Z,78.60
2019-05-12T00:17:40.422Z,77.90
2019-05-12T00:24:25.263Z,77.50
2019-05-12T00:31:10.263Z,78.00
2019-05-12T00:37:55.292Z,77.20
2019-05-12T00:44:40.139Z,76.40
2019-05-12T00:51:25.070Z,77.70
2019-05-12T00:58:10.063Z,77.60
2019-05-12T01:04:54.920Z,78.90
2019-05-12T01:11:40.280Z,78.50
2019-05-12T01:18:25.212Z,78.10
2019-05-12T01:25:10.740Z,77.90
2019-05-12T01:31:58.546Z,78.20
2019-05-12T01:38:43.583Z,79.10
2019-05-12T01:45:29.028Z,79.80
2019-05-12T01:52:15.092Z,79.40
2019-05-12T01:58:59.966Z,79.20
2019-05-12T02:05:49.152Z,79.10
2019-05-12T02:12:34.155Z,79.70
2019-05-12T02:19:19.039Z,78.80
2019-05-12T02:26:03.901Z,78.90
2019-05-12T02:32:57.294Z,79.50
2019-05-12T02:39:36.431Z,81.80
2019-05-12T02:46:21.427Z,82.70
2019-05-12T02:53:06.620Z,82.70
2019-05-12T02:59:54.059Z,82.80
2019-05-12T03:06:40.834Z,82.30
2019-05-12T03:13:25.771Z,82.50
2019-05-12T03:20:15.041Z,83.00
2019-05-12T03:26:58.208Z,84.00
2019-05-12T03:33:51.999Z,84.70
2019-05-12T03:40:30.360Z,83.00
2019-05-12T03:47:15.233Z,81.50
2019-05-12T03:54:00.554Z,81.60
2019-05-12T04:00:45.496Z,80.70
2019-05-12T04:07:30.424Z,80.30
2019-05-12T04:14:15.292Z,79.90
2019-05-12T04:21:00.221Z,79.10
2019-05-12T04:27:45.269Z,79.40
2019-05-12T04:34:30.259Z,79.40
2019-05-12T04:41:19.594Z,79.20
2019-05-12T04:48:04.826Z,78.10
2019-05-12T04:54:48.411Z,77.30
2019-05-12T05:01:34.607Z,76.60
2019-05-12T05:08:20.193Z,76.60
2019-05-12T05:15:06.816Z,76.20
2019-05-12T05:21:54.053Z,76.80
2019-05-12T05:28:38.663Z,76.30
2019-05-12T05:35:23.940Z,76.00
2019-05-12T05:42:08.963Z,75.10
2019-05-12T05:48:54.282Z,74.10
2019-05-12T05:55:39.835Z,74.80
2019-05-12T06:02:32.003Z,74.40
2019-05-12T06:09:11.256Z,74.20
2019-05-12T06:15:56.922Z,73.40
2019-05-12T06:22:43.807Z,72.80
2019-05-12T06:29:29.193Z,72.00
2019-05-12T06:36:22.344Z,70.80
2019-05-12T06:43:04.129Z,69.70
2019-05-12T06:49:48.770Z,68.60
2019-05-12T06:56:35.053Z,68.30
2019-05-12T07:03:28.426Z,67.90
2019-05-12T07:10:13.212Z,65.00
2019-05-12T07:17:01.481Z,59.20
2019-05-12T07:23:44.472Z,56.10
2019-05-12T07:30:32.635Z,60.20
2019-05-12T07:37:19.491Z,61.60
2019-05-12T07:44:04.488Z,60.20
2019-05-12T07:50:50.364Z,38.00
2019-05-12T07:57:45.139Z,41.90
2019-05-12T08:04:23.919Z,45.20
2019-05-12T08:11:08.939Z,38.40
2019-05-12T08:17:55.364Z,46.00
2019-05-12T08:24:43.278Z,40.90
2019-05-12T08:31:34.777Z,46.60
2019-05-12T08:38:14.642Z,40.60
2019-05-12T08:44:59.832Z,44.40
2019-05-12T08:51:49.502Z,34.80
2019-05-12T08:58:46.717Z,31.70
2019-05-12T09:05:18.949Z,41.50
2019-05-12T09:12:03.947Z,38.00
2019-05-12T09:18:48.812Z,30.60
2019-05-12T09:25:34.270Z,30.40
2019-05-12T09:32:19.376Z,35.80
2019-05-12T09:39:07.744Z,39.60
2019-05-12T09:45:56.284Z,31.40
2019-05-12T09:52:39.154Z,30.40
2019-05-12T09:59:25.880Z,37.20
2019-05-12T10:06:16.143Z,41.30
2019-05-12T10:12:57.683Z,41.60
2019-05-12T10:19:43.378Z,37.50
2019-05-12T10:26:28.391Z,40.00
2019-05-12T10:33:13.888Z,41.40
2019-05-12T10:39:59.184Z,40.00
2019-05-12T10:46:45.738Z,42.80
2019-05-12T10:53:31.000Z,45.80
2019-05-12T11:00:19.898Z,46.70
2019-05-12T11:07:04.704Z,45.20
2019-05-12T11:13:50.562Z,46.50
2019-05-12T11:20:35.503Z,50.40
2019-05-12T11:27:21.000Z,46.50
2019-05-12T11:34:06.151Z,44.90
2019-05-12T11:40:51.192Z,40.70
2019-05-12T11:47:37.342Z,41.90
2019-05-12T11:54:24.262Z,43.00
2019-05-12T12:01:10.710Z,44.70
2019-05-12T12:07:56.142Z,44.80
2019-05-12T12:14:48.493Z,42.10
2019-05-12T12:21:28.317Z,37.20
2019-05-12T12:28:13.709Z,37.50
2019-05-12T12:35:00.845Z,40.90
2019-05-12T12:41:58.343Z,42.10
2019-05-12T12:48:34.491Z,38.70
2019-05-12T12:55:19.415Z,38.00
2019-05-12T13:02:07.957Z,37.30
2019-05-12T13:08:53.954Z,35.80
2019-05-12T13:15:38.283Z,37.40
2019-05-12T13:22:24.551Z,38.10
2019-05-12T13:29:09.754Z,36.10
2019-05-12T13:35:55.644Z,31.80
2019-05-12T13:42:43.628Z,33.80
2019-05-12T13:49:29.909Z,33.90
2019-05-12T13:56:19.248Z,32.30
2019-05-12T14:03:07.137Z,31.60
2019-05-12T14:09:47.648Z,30.10
2019-05-12T14:16:33.913Z,34.00
2019-05-12T14:23:18.812Z,33.70
2019-05-12T14:30:10.023Z,31.60
2019-05-12T14:37:04.801Z,31.10
2019-05-12T14:43:38.923Z,32.00
2019-05-12T14:50:23.909Z,32.40
2019-05-12T14:57:08.765Z,31.00
2019-05-12T15:03:53.650Z,32.90
2019-05-12T15:10:38.569Z,31.00
2019-05-12T15:17:24.507Z,29.80
2019-05-12T15:24:15.433Z,29.10
2019-05-12T15:31:00.360Z,29.70
2019-05-12T15:37:43.886Z,29.80
2019-05-12T15:44:32.327Z,28.40
2019-05-12T15:51:16.104Z,28.80
2019-05-12T15:58:05.275Z,27.80
2019-05-12T16:04:48.514Z,28.50
2019-05-12T16:11:34.900Z,28.00
2019-05-12T16:18:19.768Z,27.80
2019-05-12T16:25:06.365Z,28.40
2019-05-12T16:31:53.354Z,28.00
2019-05-12T16:38:37.943Z,27.90
2019-05-12T16:45:23.506Z,28.20
2019-05-12T16:52:08.953Z,28.30
2019-05-12T16:58:54.253Z,28.70
2019-05-12T17:05:39.173Z,28.90
2019-05-12T17:12:32.063Z,29.10
2019-05-12T17:19:10.872Z,29.50
2019-05-12T17:25:55.913Z,29.80
2019-05-12T17:32:56.534Z,29.40
2019-05-12T17:39:29.490Z,30.30
2019-05-12T17:46:18.080Z,29.80
2019-05-12T17:53:01.247Z,29.30
2019-05-12T17:59:46.184Z,29.60
2019-05-12T18:06:31.140Z,29.60
2019-05-12T18:13:23.017Z,29.80
2019-05-12T18:20:04.110Z,30.00
2019-05-12T18:26:58.672Z,30.70
2019-05-12T18:33:48.914Z,31.90
2019-05-12T18:40:27.782Z,32.20
2019-05-12T18:47:14.371Z,33.00
2019-05-12T18:53:58.049Z,33.80
2019-05-12T19:00:45.090Z,35.10
2019-05-12T19:07:39.594Z,36.40
2019-05-12T19:14:17.830Z,38.10
2019-05-12T19:21:04.726Z,37.80
2019-05-12T19:27:55.465Z,38.80
2019-05-12T19:34:39.308Z,38.50
2019-05-12T19:41:24.625Z,39.40
2019-05-12T19:48:23.123Z,39.80
2019-05-12T19:54:56.761Z,40.60
2019-05-12T20:01:44.354Z,40.80
2019-05-12T20:08:28.464Z,41.90
2019-05-12T20:15:15.054Z,43.60
2019-05-12T20:22:00.468Z,44.90
2019-05-12T20:28:50.601Z,44.80
2019-05-12T20:35:33.786Z,47.60
2019-05-12T20:42:18.901Z,45.90
2019-05-12T20:49:07.562Z,48.00
2019-05-12T20:55:50.724Z,48.00
2019-05-12T21:02:35.725Z,47.00
2019-05-12T21:09:20.575Z,47.40
2019-05-12T21:16:16.358Z,49.80
2019-05-12T21:22:53.836Z,53.90
2019-05-12T21:29:38.659Z,50.70
2019-05-12T21:36:26.584Z,51.50
2019-05-12T21:43:10.333Z,55.50
2019-05-12T21:49:57.876Z,58.00
2019-05-12T21:56:44.845Z,60.20
2019-05-12T22:03:28.468Z,61.10
2019-05-12T22:10:15.590Z,61.30
2019-05-12T22:17:02.306Z,60.30
2019-05-12T22:23:51.139Z,61.40
2019-05-12T22:30:35.024Z,62.40
2019-05-12T22:37:20.023Z,64.40
2019-05-12T22:44:05.071Z,65.50
2019-05-12T22:50:50.078Z,66.40
2019-05-12T22:57:40.149Z,67.30
2019-05-12T23:04:26.026Z,68.10
2019-05-12T23:11:08.351Z,68.70
2019-05-12T23:17:53.403Z,69.30
2019-05-12T23:24:40.741Z,70.40
2019-05-12T23:31:29.849Z,72.20
2019-05-12T23:38:18.893Z,73.80
2019-05-12T23:44:58.659Z,74.30
2019-05-12T23:51:44.072Z,74.40
2019-05-12T23:58:29.427Z,72.20
